Pagina principale
METAR-TAF:

METAR-TAF

Aeroporti :

Brazza, Croazia

latitudine: 43-17-09N, longitudine: 016-40-47E, altezza: 541 m

Osservazione

Il bollettino è stato emesso 2 ore e 35 minuti fa, alle 07:00 UTC
Vento 5 kt da nord-est
Temperature 22°C
Umidità 50%
Pressione 1019 hPa
Visibilità 10 km o più
nessuna nube inferiore a 1500 m e nessun cumulonembo

METAR: LDSB 290700Z 05005KT CAVOK 22/11 Q1019

Ora: 11:35 (09:35 UTC)

Previsione

Il bollettino è stato emesso 22 ore e 10 minuti fa, alle 11:25 UTC
Previsione valida dal 27 alle 12 UTC al 28 alle 12 UTC
Vento 12 kt da nord-est
Visibilità 10 km o più
nessuna nube inferiore a 1500 m e nessun cumulonembo
Temporaneamente
dal 27 alle 12 UTC al 27 alle 16 UTC
Vento 10 kt da ovest/nord-ovest
Evoluzione graduale
dal 28 alle 09 UTC al 28 alle 11 UTC
Vento 8 kt da sud-ovest

TAF: LDSB 271125Z 2712/2812 04012KT CAVOK TX23/2713Z TN15/2803Z TEMPO 2712/2716 30010KT BECMG 2809/2811 22008KT

Osservazioni e previsioni meteorologiche di più di 4000 aeroporti (messaggi METAR e TAF).

Le stazioni disponibili sono rappresentate dai dischi gialli e rossi sulla carta.

Puntare il mouse per vedere il nome della stazione.

Clicca sopra per visualizzare le osservazioni e previsioni meteorologiche.

Per cambiare la mappa : fare clic sui pulsanti verdi con una croce nera per ingrandire, il pulsante verde con un trattino per diminuire, o sulla freccia verde per le mappe adiacenti.


METAR-TAF: